createdAt,value
2018-09-17T00:00:36.414Z,45.04
2018-09-17T00:10:39.692Z,44.32
2018-09-17T00:20:42.861Z,44.38
2018-09-17T00:30:46.088Z,44.15
2018-09-17T00:40:49.236Z,44.29
2018-09-17T00:50:52.305Z,44.34
2018-09-17T01:00:55.569Z,44.06
2018-09-17T01:10:58.737Z,44.91
2018-09-17T01:21:02.592Z,44.82
2018-09-17T01:31:05.718Z,45.22
2018-09-17T01:41:08.845Z,44.63
2018-09-17T01:51:11.977Z,45.58
2018-09-17T02:01:15.064Z,44.63
2018-09-17T02:11:18.266Z,44.80
2018-09-17T02:21:21.439Z,44.53
2018-09-17T02:31:24.585Z,44.84
2018-09-17T02:41:27.625Z,45.27
2018-09-17T02:51:30.854Z,44.63
2018-09-17T03:01:33.972Z,44.54
2018-09-17T03:11:37.100Z,43.89
2018-09-17T03:21:40.133Z,44.33
2018-09-17T03:31:43.089Z,43.54
2018-09-17T03:41:46.322Z,43.36
2018-09-17T03:51:49.512Z,43.38
2018-09-17T04:01:53.171Z,43.76
2018-09-17T04:11:56.355Z,44.05
2018-09-17T04:21:59.429Z,43.69
2018-09-17T04:32:02.494Z,43.72
2018-09-17T04:42:05.513Z,44.28
2018-09-17T04:52:08.685Z,43.66
2018-09-17T05:02:11.841Z,43.80
2018-09-17T05:12:14.996Z,44.20
2018-09-17T05:22:18.005Z,43.51
2018-09-17T05:32:21.064Z,43.81
2018-09-17T05:42:24.061Z,44.50
2018-09-17T05:52:27.057Z,44.03
2018-09-17T06:02:30.200Z,44.39
2018-09-17T06:12:33.337Z,44.64
2018-09-17T06:22:36.757Z,43.39
2018-09-17T06:32:39.833Z,44.41
2018-09-17T06:42:42.963Z,44.47
2018-09-17T06:52:46.066Z,43.81
2018-09-17T07:02:49.098Z,45.00
2018-09-17T07:12:52.231Z,44.21
2018-09-17T07:22:55.291Z,43.56
2018-09-17T07:32:58.400Z,44.31
2018-09-17T07:43:01.469Z,44.85
2018-09-17T07:53:04.547Z,44.28
2018-09-17T08:03:07.681Z,43.95
2018-09-17T08:13:10.864Z,43.27
2018-09-17T08:23:13.998Z,42.74
2018-09-17T08:33:17.107Z,42.79
2018-09-17T08:43:20.249Z,42.32
2018-09-17T08:53:23.502Z,43.98
2018-09-17T09:03:31.621Z,41.97
2018-09-17T09:13:38.913Z,42.38
2018-09-17T09:23:41.963Z,43.86
2018-09-17T09:33:44.427Z,41.73
2018-09-17T09:43:46.956Z,42.25
2018-09-17T09:53:49.473Z,43.41
2018-09-17T10:03:57.231Z,43.95
2018-09-17T10:14:05.172Z,43.01
2018-09-17T10:24:07.705Z,43.62
2018-09-17T10:34:10.301Z,43.13
2018-09-17T10:44:12.763Z,43.22
2018-09-17T10:54:15.274Z,43.00
2018-09-17T11:04:17.668Z,42.94
2018-09-17T11:14:20.145Z,43.18
2018-09-17T11:24:22.900Z,42.74
2018-09-17T11:34:25.351Z,42.18
2018-09-17T11:44:27.687Z,41.72
2018-09-17T11:54:30.068Z,40.70
2018-09-17T12:04:38.029Z,41.21
2018-09-17T12:14:40.414Z,40.37
2018-09-17T12:24:42.913Z,41.55
2018-09-17T12:34:45.233Z,40.34
2018-09-17T12:44:48.387Z,40.50
2018-09-17T12:54:50.932Z,40.21
2018-09-17T13:04:53.469Z,40.34
2018-09-17T13:14:56.634Z,41.19
2018-09-17T13:24:58.886Z,39.91
2018-09-17T13:35:01.179Z,39.99
2018-09-17T13:45:03.602Z,39.95
2018-09-17T13:55:06.040Z,39.30
2018-09-17T14:05:08.386Z,41.34
2018-09-17T14:15:10.968Z,40.25
2018-09-17T14:25:13.411Z,40.37
2018-09-17T14:35:15.771Z,39.33
2018-09-17T14:45:18.393Z,39.33
2018-09-17T14:55:20.849Z,40.29
2018-09-17T15:05:23.874Z,39.37
2018-09-17T15:15:27.029Z,39.92
2018-09-17T15:25:29.885Z,39.20
2018-09-17T15:35:33.033Z,39.18
2018-09-17T15:45:36.176Z,39.93
2018-09-17T15:55:39.266Z,39.86
2018-09-17T16:05:42.297Z,40.70
2018-09-17T16:15:47.035Z,40.31
2018-09-17T16:25:50.133Z,39.83
2018-09-17T16:35:53.426Z,40.04
2018-09-17T16:45:56.643Z,40.54
2018-09-17T16:55:59.763Z,39.98
2018-09-17T17:06:03.005Z,40.33
2018-09-17T17:16:06.129Z,39.49
2018-09-17T17:26:09.352Z,40.76
2018-09-17T17:36:12.469Z,40.10
2018-09-17T17:46:15.541Z,40.80
2018-09-17T17:56:18.708Z,40.65
2018-09-17T18:06:21.788Z,41.06
2018-09-17T18:16:29.380Z,41.34
2018-09-17T18:26:32.404Z,40.86
2018-09-17T18:36:35.704Z,40.77
2018-09-17T18:46:38.849Z,41.07
2018-09-17T18:56:42.097Z,41.54
2018-09-17T19:06:45.096Z,41.04
2018-09-17T19:16:49.529Z,40.66
2018-09-17T19:26:52.657Z,41.88
2018-09-17T19:36:59.949Z,41.62
2018-09-17T19:47:03.175Z,41.32
2018-09-17T19:57:11.142Z,41.64
2018-09-17T20:07:15.456Z,41.73
2018-09-17T20:17:18.657Z,42.57
2018-09-17T20:27:21.671Z,42.22
2018-09-17T20:37:24.801Z,43.21
2018-09-17T20:47:28.041Z,43.98
2018-09-17T20:57:31.180Z,43.76
2018-09-17T21:07:34.269Z,43.32
2018-09-17T21:17:37.369Z,43.76
2018-09-17T21:27:40.743Z,43.42
2018-09-17T21:37:44.110Z,43.90
2018-09-17T21:47:50.023Z,43.81
2018-09-17T21:57:53.081Z,44.28
2018-09-17T22:07:56.172Z,44.60
2018-09-17T22:17:59.293Z,43.81
2018-09-17T22:28:02.694Z,44.56
2018-09-17T22:38:05.833Z,44.50
2018-09-17T22:48:09.084Z,44.59
2018-09-17T22:58:12.508Z,44.51
2018-09-17T23:08:15.711Z,44.64
2018-09-17T23:18:20.386Z,44.24
2018-09-17T23:28:25.341Z,44.90
2018-09-17T23:38:29.093Z,44.08
2018-09-17T23:48:32.878Z,44.22
2018-09-17T23:58:36.421Z,45.00
